createdAt,value
2023-06-03T00:00:06.047Z,2.97
2023-06-03T00:01:41.682Z,2.80
2023-06-03T00:03:14.558Z,3.50
2023-06-03T00:04:47.587Z,3.10
2023-06-03T00:06:19.525Z,3.03
2023-06-03T00:07:52.376Z,3.20
2023-06-03T00:09:24.300Z,3.30
2023-06-03T00:10:57.157Z,3.00
2023-06-03T00:12:28.978Z,3.10
2023-06-03T00:14:01.730Z,3.00
2023-06-03T00:15:34.845Z,3.53
2023-06-03T00:17:07.670Z,3.07
2023-06-03T00:18:40.429Z,2.77
2023-06-03T00:20:13.204Z,3.10
2023-06-03T00:21:47.416Z,3.23
2023-06-03T00:23:20.211Z,3.27
2023-06-03T00:24:53.026Z,3.00
2023-06-03T00:26:26.800Z,3.30
2023-06-03T00:27:59.611Z,3.70
2023-06-03T00:29:31.435Z,3.10
2023-06-03T00:31:05.795Z,2.97
2023-06-03T00:32:38.652Z,3.30
2023-06-03T00:34:12.022Z,3.33
2023-06-03T00:35:44.819Z,3.67
2023-06-03T00:37:16.600Z,3.00
2023-06-03T00:38:49.370Z,3.60
2023-06-03T00:40:22.323Z,3.20
2023-06-03T00:41:55.065Z,3.80
2023-06-03T00:43:27.813Z,2.87
2023-06-03T00:45:00.643Z,3.53
2023-06-03T00:46:36.596Z,3.70
2023-06-03T00:48:09.518Z,3.20
2023-06-03T00:49:42.529Z,3.07
2023-06-03T00:51:17.349Z,3.40
2023-06-03T00:52:51.291Z,3.23
2023-06-03T00:54:23.518Z,3.43
2023-06-03T00:56:00.126Z,3.57
2023-06-03T00:57:33.210Z,3.37
2023-06-03T00:59:05.236Z,4.07
2023-06-03T01:00:37.962Z,3.43
2023-06-03T01:02:13.754Z,3.37
2023-06-03T01:03:48.501Z,3.33
2023-06-03T01:05:21.385Z,3.43
2023-06-03T01:07:06.882Z,3.47
2023-06-03T01:08:49.144Z,3.80
2023-06-03T01:10:25.915Z,3.57
2023-06-03T01:12:09.421Z,3.70
2023-06-03T01:13:48.695Z,3.53
2023-06-03T01:15:24.327Z,3.93
2023-06-03T01:16:58.629Z,3.37
2023-06-03T01:18:33.513Z,3.30
2023-06-03T01:20:08.774Z,3.67
2023-06-03T01:21:42.803Z,3.87
2023-06-03T01:23:22.615Z,3.73
2023-06-03T01:25:04.116Z,3.60
2023-06-03T01:26:37.560Z,3.90
2023-06-03T01:28:10.476Z,3.80
2023-06-03T01:29:44.230Z,3.43
2023-06-03T01:31:18.065Z,4.00
2023-06-03T01:32:51.393Z,3.80
2023-06-03T01:34:24.178Z,3.80
2023-06-03T01:35:59.379Z,3.63
2023-06-03T01:37:32.611Z,4.07
2023-06-03T01:39:06.986Z,3.77
2023-06-03T01:40:40.511Z,4.57
2023-06-03T01:42:13.862Z,3.97
2023-06-03T01:43:45.800Z,4.03
2023-06-03T01:45:18.651Z,4.13
2023-06-03T01:46:51.533Z,3.90
2023-06-03T01:48:24.381Z,3.80
2023-06-03T01:49:56.285Z,3.97
2023-06-03T01:51:29.063Z,4.10
2023-06-03T01:53:01.842Z,3.97
2023-06-03T01:54:34.968Z,4.07
2023-06-03T01:56:08.418Z,4.43
2023-06-03T01:57:41.185Z,3.80
2023-06-03T01:59:14.508Z,4.40
2023-06-03T02:00:46.358Z,4.00
2023-06-03T02:02:19.220Z,3.87
2023-06-03T02:03:51.054Z,4.07
2023-06-03T02:05:23.946Z,4.20
2023-06-03T02:06:57.522Z,4.30
2023-06-03T02:08:31.318Z,4.20
2023-06-03T02:10:06.113Z,4.30
2023-06-03T02:11:37.886Z,4.00
2023-06-03T02:13:10.601Z,4.23
2023-06-03T02:14:42.394Z,4.27
2023-06-03T02:16:15.234Z,3.93
2023-06-03T02:17:49.752Z,4.53
2023-06-03T02:19:24.498Z,4.20
2023-06-03T02:20:57.245Z,4.30
2023-06-03T02:22:30.035Z,4.43
2023-06-03T02:24:03.406Z,4.30
2023-06-03T02:25:37.658Z,4.40
2023-06-03T02:27:10.397Z,4.03
2023-06-03T02:28:42.162Z,4.37
2023-06-03T02:30:15.159Z,4.67
2023-06-03T02:31:48.209Z,4.20
2023-06-03T02:33:20.997Z,4.20
2023-06-03T02:34:53.126Z,4.30
2023-06-03T02:36:25.910Z,4.80
2023-06-03T02:37:58.856Z,4.60
2023-06-03T02:39:31.678Z,4.50
2023-06-03T02:41:05.952Z,4.60
2023-06-03T02:42:39.715Z,4.30
2023-06-03T02:44:11.975Z,4.47
2023-06-03T02:45:44.742Z,4.20
2023-06-03T02:47:17.488Z,4.60
2023-06-03T02:48:49.292Z,4.10
2023-06-03T02:50:22.159Z,4.50
2023-06-03T02:51:56.432Z,4.80
2023-06-03T02:53:29.321Z,4.63
2023-06-03T02:55:02.365Z,4.50
2023-06-03T02:56:37.044Z,4.40
2023-06-03T02:58:09.953Z,4.23
2023-06-03T02:59:41.944Z,4.60
2023-06-03T03:01:14.675Z,4.37
2023-06-03T03:02:47.578Z,4.13
2023-06-03T03:04:21.695Z,4.20
2023-06-03T03:05:55.953Z,4.43
2023-06-03T03:07:28.755Z,4.70
2023-06-03T03:09:01.544Z,4.60
2023-06-03T03:10:34.335Z,4.90
2023-06-03T03:12:09.794Z,4.63
2023-06-03T03:13:43.036Z,4.57
2023-06-03T03:15:15.918Z,4.73
2023-06-03T03:16:48.677Z,4.57
2023-06-03T03:18:21.515Z,5.00
2023-06-03T03:19:54.348Z,4.03
2023-06-03T03:21:27.198Z,5.07
2023-06-03T03:23:01.106Z,4.80
2023-06-03T03:24:33.862Z,4.73
2023-06-03T03:26:08.892Z,4.60
2023-06-03T03:27:43.055Z,4.60
2023-06-03T03:29:14.855Z,4.43
2023-06-03T03:30:50.241Z,4.80
2023-06-03T03:32:23.068Z,4.67
2023-06-03T03:33:54.954Z,5.20
2023-06-03T03:35:28.388Z,4.50
2023-06-03T03:37:01.360Z,4.50
2023-06-03T03:38:34.150Z,4.30
2023-06-03T03:40:14.256Z,4.60
2023-06-03T03:41:46.992Z,4.40
2023-06-03T03:43:21.592Z,4.03
2023-06-03T03:44:54.323Z,4.70
2023-06-03T03:46:27.254Z,5.37
2023-06-03T03:48:03.038Z,4.30
2023-06-03T03:49:36.735Z,4.90
2023-06-03T03:51:10.088Z,4.73
2023-06-03T03:52:42.382Z,4.50
2023-06-03T03:54:15.588Z,4.53
2023-06-03T03:55:49.992Z,4.40
2023-06-03T03:57:25.295Z,4.40
2023-06-03T03:58:59.433Z,4.47
2023-06-03T04:00:34.221Z,4.17
2023-06-03T04:02:07.549Z,4.70
2023-06-03T04:03:41.431Z,4.23
2023-06-03T04:05:17.058Z,4.30
2023-06-03T04:06:49.828Z,3.93
2023-06-03T04:08:40.883Z,4.57
2023-06-03T04:10:14.283Z,4.30
2023-06-03T04:11:48.140Z,4.50
2023-06-03T04:13:21.007Z,4.43
2023-06-03T04:14:58.321Z,4.40
2023-06-03T04:16:52.721Z,4.17
2023-06-03T04:18:24.636Z,4.03
2023-06-03T04:19:57.533Z,4.00
2023-06-03T04:21:29.501Z,4.80
2023-06-03T04:23:05.591Z,4.10
2023-06-03T04:24:43.147Z,4.30
2023-06-03T04:26:17.381Z,4.30
2023-06-03T04:27:50.160Z,4.50
2023-06-03T04:29:23.833Z,4.17
2023-06-03T04:30:57.915Z,4.10
2023-06-03T04:32:31.282Z,4.40
2023-06-03T04:34:04.817Z,4.43
2023-06-03T04:35:37.618Z,3.60
2023-06-03T04:37:10.340Z,4.30
2023-06-03T04:38:44.451Z,4.33
2023-06-03T04:40:16.495Z,3.77
2023-06-03T04:41:49.243Z,3.80
2023-06-03T04:43:23.305Z,4.40
2023-06-03T04:44:59.287Z,3.60
2023-06-03T04:46:34.480Z,4.03
2023-06-03T04:48:08.644Z,3.63
2023-06-03T04:49:40.722Z,3.40
2023-06-03T04:51:14.123Z,3.93
2023-06-03T04:52:45.922Z,3.73
2023-06-03T04:54:24.595Z,3.80
2023-06-03T04:55:57.315Z,3.67
2023-06-03T04:57:30.106Z,3.70
2023-06-03T04:59:04.995Z,3.80
2023-06-03T05:00:38.599Z,3.20
2023-06-03T05:02:14.462Z,3.67
2023-06-03T05:03:47.314Z,4.00
2023-06-03T05:05:20.024Z,3.40
2023-06-03T05:06:52.760Z,4.00
2023-06-03T05:08:25.632Z,3.77
2023-06-03T05:09:58.594Z,3.90
2023-06-03T05:11:31.317Z,3.70
2023-06-03T05:13:03.606Z,3.73
2023-06-03T05:14:36.464Z,3.40
2023-06-03T05:16:09.500Z,3.30
2023-06-03T05:17:43.700Z,3.70
2023-06-03T05:19:16.439Z,3.30
2023-06-03T05:20:49.154Z,3.53
2023-06-03T05:22:21.885Z,3.27
2023-06-03T05:23:54.754Z,3.60
2023-06-03T05:25:27.526Z,3.30
2023-06-03T05:27:00.292Z,3.67
2023-06-03T05:28:33.082Z,3.60
2023-06-03T05:30:05.803Z,3.10
2023-06-03T05:31:38.590Z,3.70
2023-06-03T05:33:25.535Z,3.30
2023-06-03T05:34:58.274Z,3.30
2023-06-03T05:36:31.111Z,3.53
2023-06-03T05:38:03.831Z,3.30
2023-06-03T05:39:36.774Z,3.27
2023-06-03T05:41:09.547Z,3.23
2023-06-03T05:42:42.833Z,3.10
2023-06-03T05:44:15.730Z,2.90
2023-06-03T05:45:48.942Z,3.00
2023-06-03T05:47:21.793Z,3.07
2023-06-03T05:48:55.861Z,2.87
2023-06-03T05:50:28.592Z,2.97
2023-06-03T05:52:01.311Z,2.80
2023-06-03T05:53:34.069Z,3.20
2023-06-03T05:55:08.003Z,2.90
2023-06-03T05:56:40.990Z,2.97
2023-06-03T05:58:13.784Z,2.77
2023-06-03T05:59:47.654Z,2.87
2023-06-03T06:01:20.427Z,2.97
2023-06-03T06:02:53.289Z,2.63
2023-06-03T06:04:27.587Z,2.53
2023-06-03T06:06:02.118Z,2.60
2023-06-03T06:07:34.901Z,2.67
2023-06-03T06:09:07.661Z,2.70
2023-06-03T06:10:40.484Z,2.80
2023-06-03T06:12:13.329Z,2.80
2023-06-03T06:13:45.216Z,2.63
2023-06-03T06:15:18.284Z,2.60
2023-06-03T06:16:52.893Z,2.90
2023-06-03T06:18:24.867Z,2.77
2023-06-03T06:20:00.872Z,2.30
2023-06-03T06:21:33.802Z,2.50
2023-06-03T06:23:06.598Z,2.50
2023-06-03T06:24:39.442Z,2.53
2023-06-03T06:26:14.293Z,2.77
2023-06-03T06:27:47.294Z,2.50
2023-06-03T06:29:20.077Z,2.67
2023-06-03T06:30:54.164Z,2.60
2023-06-03T06:32:28.532Z,2.40
2023-06-03T06:34:01.748Z,2.40
2023-06-03T06:35:37.380Z,2.50
2023-06-03T06:37:11.014Z,2.50
2023-06-03T06:38:43.789Z,2.60
2023-06-03T06:40:20.160Z,2.40
2023-06-03T06:41:52.934Z,2.60
2023-06-03T06:43:27.716Z,2.33
2023-06-03T06:45:05.713Z,2.57
2023-06-03T06:46:39.379Z,2.50
2023-06-03T06:48:14.119Z,2.33
2023-06-03T06:49:46.958Z,2.50
2023-06-03T06:51:21.187Z,2.30
2023-06-03T06:52:52.978Z,2.10
2023-06-03T06:54:25.922Z,2.37
2023-06-03T06:56:01.144Z,2.30
2023-06-03T06:57:36.160Z,2.33
2023-06-03T06:59:08.890Z,2.70
2023-06-03T07:00:41.067Z,2.33
2023-06-03T07:02:13.986Z,2.53
2023-06-03T07:03:46.742Z,2.70
2023-06-03T07:05:19.518Z,2.43
2023-06-03T07:06:54.062Z,2.60
2023-06-03T07:08:27.280Z,2.37
2023-06-03T07:10:00.049Z,2.20
2023-06-03T07:11:38.592Z,2.43
2023-06-03T07:13:11.392Z,2.57
2023-06-03T07:14:44.197Z,2.40
2023-06-03T07:16:17.604Z,2.47
2023-06-03T07:17:51.066Z,2.40
2023-06-03T07:19:24.094Z,2.50
2023-06-03T07:20:57.089Z,2.33
2023-06-03T07:22:31.635Z,1.93
2023-06-03T07:24:05.095Z,2.10
2023-06-03T07:25:40.458Z,2.20
2023-06-03T07:27:24.205Z,2.10
2023-06-03T07:28:57.949Z,2.10
2023-06-03T07:30:30.703Z,2.37
2023-06-03T07:32:03.813Z,2.57
2023-06-03T07:33:39.139Z,2.70
2023-06-03T07:35:13.218Z,2.60
2023-06-03T07:36:46.024Z,2.47
2023-06-03T07:39:05.242Z,2.70
2023-06-03T07:40:42.048Z,3.03
2023-06-03T07:42:21.097Z,2.70
2023-06-03T07:43:53.913Z,2.40
2023-06-03T07:45:28.452Z,3.00
2023-06-03T07:47:01.181Z,2.20
2023-06-03T07:48:35.046Z,2.50
2023-06-03T07:50:22.823Z,2.83
2023-06-03T07:51:55.826Z,2.80
2023-06-03T07:53:33.608Z,2.63
2023-06-03T07:55:09.066Z,2.50
2023-06-03T07:56:42.330Z,2.47
2023-06-03T07:58:16.887Z,2.60
2023-06-03T07:59:53.856Z,2.30
2023-06-03T08:01:26.968Z,2.57
2023-06-03T08:02:59.870Z,2.70
2023-06-03T08:04:35.033Z,2.87
2023-06-03T08:06:09.272Z,3.20
2023-06-03T08:07:44.948Z,2.53
2023-06-03T08:09:25.454Z,2.80
2023-06-03T08:10:58.325Z,2.67
2023-06-03T08:12:35.362Z,2.70
2023-06-03T08:14:08.167Z,2.53
2023-06-03T08:15:41.501Z,2.50
2023-06-03T08:17:17.192Z,2.47
2023-06-03T08:18:51.664Z,2.40
2023-06-03T08:20:25.616Z,2.50
2023-06-03T08:21:59.238Z,2.30
2023-06-03T08:23:33.700Z,2.13
2023-06-03T08:25:08.860Z,2.50
2023-06-03T08:26:41.802Z,2.60
2023-06-03T08:28:14.670Z,2.67
2023-06-03T08:29:46.531Z,2.30
2023-06-03T08:31:19.279Z,2.40
2023-06-03T08:32:52.755Z,2.40
2023-06-03T08:34:25.635Z,2.50
2023-06-03T08:35:58.818Z,2.80
2023-06-03T08:37:32.687Z,2.70
2023-06-03T08:39:08.040Z,2.60
2023-06-03T08:40:47.405Z,2.60
2023-06-03T08:42:24.801Z,2.73
2023-06-03T08:44:09.102Z,2.80
2023-06-03T08:45:54.717Z,2.73
2023-06-03T08:47:35.641Z,2.50
2023-06-03T08:49:13.403Z,2.40
2023-06-03T08:50:51.082Z,2.73
2023-06-03T08:52:27.653Z,2.37
2023-06-03T08:54:00.373Z,2.60
2023-06-03T08:55:34.129Z,4.33
2023-06-03T08:57:12.855Z,2.60
2023-06-03T08:58:49.526Z,2.80
2023-06-03T09:00:24.731Z,2.40
2023-06-03T09:01:58.954Z,2.90
2023-06-03T09:03:33.289Z,2.70
2023-06-03T09:05:07.474Z,2.83
2023-06-03T09:06:44.375Z,3.10
2023-06-03T09:08:18.528Z,2.70
2023-06-03T09:09:52.884Z,2.90
2023-06-03T09:11:26.731Z,2.67
2023-06-03T09:13:03.183Z,2.83
2023-06-03T09:14:36.497Z,3.00
2023-06-03T09:16:10.332Z,3.20
2023-06-03T09:17:43.861Z,3.17
2023-06-03T09:19:16.810Z,2.80
2023-06-03T09:20:49.560Z,2.73
2023-06-03T09:22:23.947Z,3.13
2023-06-03T09:23:56.882Z,2.40
2023-06-03T09:25:29.696Z,2.97
2023-06-03T09:27:02.938Z,3.10
2023-06-03T09:28:37.037Z,2.80
2023-06-03T09:30:10.899Z,2.73
2023-06-03T09:31:43.702Z,3.03
2023-06-03T09:33:17.403Z,2.67
2023-06-03T09:34:50.300Z,2.77
2023-06-03T09:38:02.724Z,2.63
2023-06-03T09:39:36.661Z,2.63
2023-06-03T09:41:16.046Z,2.90
2023-06-03T09:42:48.862Z,2.67
2023-06-03T09:44:22.994Z,2.70
2023-06-03T09:45:55.926Z,2.87
2023-06-03T09:47:37.061Z,3.10
2023-06-03T09:49:10.883Z,3.03
2023-06-03T09:50:50.984Z,2.90
2023-06-03T09:52:33.363Z,2.87
2023-06-03T09:54:12.268Z,2.80
2023-06-03T09:55:45.050Z,2.90
2023-06-03T09:57:17.818Z,2.80
2023-06-03T09:58:52.528Z,2.60
2023-06-03T10:00:26.669Z,3.10
2023-06-03T10:01:59.471Z,3.00
2023-06-03T10:03:32.320Z,3.27
2023-06-03T10:05:05.428Z,3.10
2023-06-03T10:06:39.381Z,2.90
2023-06-03T10:08:12.176Z,3.20
2023-06-03T10:09:48.096Z,3.03
2023-06-03T10:11:19.939Z,2.90
2023-06-03T10:12:52.875Z,3.30
2023-06-03T10:14:27.391Z,3.10
2023-06-03T10:16:03.385Z,3.27
2023-06-03T10:17:37.484Z,3.20
2023-06-03T10:19:10.324Z,3.40
2023-06-03T10:20:43.995Z,3.07
2023-06-03T10:22:19.220Z,3.20
2023-06-03T10:23:55.017Z,3.80
2023-06-03T10:25:28.734Z,3.70
2023-06-03T10:27:01.987Z,3.77
2023-06-03T10:28:35.233Z,3.70
2023-06-03T10:30:09.547Z,3.73
2023-06-03T10:31:44.654Z,3.60
2023-06-03T10:33:19.884Z,3.70
2023-06-03T10:34:53.787Z,3.33
2023-06-03T10:36:28.099Z,3.67
2023-06-03T10:38:01.898Z,3.60
2023-06-03T10:39:35.156Z,3.43
2023-06-03T10:41:08.829Z,3.70
2023-06-03T10:42:42.840Z,3.63
2023-06-03T10:44:14.696Z,3.67
2023-06-03T10:45:47.721Z,3.53
2023-06-03T10:47:27.413Z,3.90
2023-06-03T10:49:00.936Z,3.50
2023-06-03T10:50:45.130Z,3.90
2023-06-03T10:52:38.350Z,3.67
2023-06-03T10:54:25.613Z,3.80
2023-06-03T10:56:07.778Z,4.07
2023-06-03T10:57:46.675Z,3.77
2023-06-03T10:59:22.801Z,3.90
2023-06-03T11:00:57.357Z,3.87
2023-06-03T11:03:07.877Z,3.77
2023-06-03T11:04:41.600Z,3.63
2023-06-03T11:06:42.193Z,3.80
2023-06-03T11:08:15.043Z,4.13
2023-06-03T11:09:47.846Z,3.57
2023-06-03T11:11:56.954Z,3.87
2023-06-03T11:13:43.572Z,3.60
2023-06-03T11:15:16.601Z,3.87
2023-06-03T11:17:11.033Z,4.20
2023-06-03T11:18:45.350Z,3.80
2023-06-03T11:20:38.618Z,4.00
2023-06-03T11:22:12.302Z,4.27
2023-06-03T11:23:46.360Z,3.60
2023-06-03T11:25:32.619Z,4.03
2023-06-03T11:27:23.187Z,3.77
2023-06-03T11:28:55.950Z,4.27
2023-06-03T11:30:55.004Z,3.93
2023-06-03T11:32:29.448Z,3.77
2023-06-03T11:34:27.807Z,4.10
2023-06-03T11:36:00.701Z,4.33
2023-06-03T11:37:54.703Z,4.03
2023-06-03T11:39:27.633Z,3.70
2023-06-03T11:41:00.372Z,3.80
2023-06-03T11:42:33.494Z,4.00
2023-06-03T11:44:29.366Z,3.80
2023-06-03T11:46:07.830Z,3.90
2023-06-03T11:47:49.701Z,4.00
2023-06-03T11:49:22.954Z,3.50
2023-06-03T11:50:58.447Z,3.73
2023-06-03T11:52:38.129Z,3.93
2023-06-03T11:54:13.423Z,4.40
2023-06-03T11:55:46.193Z,4.17
2023-06-03T11:57:19.871Z,4.10
2023-06-03T11:58:53.802Z,3.80
2023-06-03T12:00:26.576Z,4.10
2023-06-03T12:01:58.932Z,3.80
2023-06-03T12:03:31.778Z,3.97
2023-06-03T12:05:06.344Z,4.20
2023-06-03T12:06:40.704Z,4.07
2023-06-03T12:08:13.462Z,4.10
2023-06-03T12:09:46.801Z,4.20
2023-06-03T12:11:27.092Z,3.73
2023-06-03T12:13:00.417Z,4.30
2023-06-03T12:14:34.913Z,4.13
2023-06-03T12:16:07.957Z,4.10
2023-06-03T12:17:40.945Z,4.00
2023-06-03T12:19:12.754Z,4.13
2023-06-03T12:20:49.015Z,3.70
2023-06-03T12:22:28.730Z,3.60
2023-06-03T12:24:00.881Z,4.37
2023-06-03T12:25:35.640Z,4.40
2023-06-03T12:27:18.719Z,4.00
2023-06-03T12:28:51.481Z,4.37
2023-06-03T12:30:31.104Z,4.40
2023-06-03T12:32:04.289Z,4.20
2023-06-03T12:33:41.770Z,4.27
2023-06-03T12:35:15.295Z,4.10
2023-06-03T12:36:49.110Z,4.00
2023-06-03T12:38:24.693Z,4.00
2023-06-03T12:39:59.103Z,4.10
2023-06-03T12:41:31.065Z,4.33
2023-06-03T12:43:05.444Z,4.20
2023-06-03T12:44:49.630Z,4.10
2023-06-03T12:46:22.422Z,4.27
2023-06-03T12:47:56.682Z,4.40
2023-06-03T12:49:28.624Z,4.00
2023-06-03T12:51:01.646Z,4.27
2023-06-03T12:52:37.166Z,4.00
2023-06-03T12:54:11.639Z,4.17
2023-06-03T12:55:44.384Z,4.00
2023-06-03T12:57:17.628Z,4.30
2023-06-03T12:58:50.362Z,4.13
2023-06-03T13:00:23.482Z,4.03
2023-06-03T13:01:56.285Z,4.27
2023-06-03T13:03:29.034Z,4.00
2023-06-03T13:05:02.299Z,3.90
2023-06-03T13:06:35.088Z,3.90
2023-06-03T13:08:11.039Z,4.20
2023-06-03T13:09:45.185Z,4.27
2023-06-03T13:11:17.952Z,4.20
2023-06-03T13:12:51.033Z,4.13
2023-06-03T13:14:23.916Z,4.23
2023-06-03T13:15:56.694Z,4.13
2023-06-03T13:17:29.781Z,3.87
2023-06-03T13:19:03.685Z,4.37
2023-06-03T13:20:36.470Z,4.33
2023-06-03T13:22:09.784Z,4.43
2023-06-03T13:23:42.655Z,4.10
2023-06-03T13:25:16.781Z,4.20
2023-06-03T13:26:49.908Z,4.10
2023-06-03T13:28:22.656Z,4.10
2023-06-03T13:29:55.438Z,3.90
2023-06-03T13:31:28.233Z,4.40
2023-06-03T13:33:01.702Z,4.60
2023-06-03T13:34:35.374Z,4.13
2023-06-03T13:36:08.339Z,4.00
2023-06-03T13:37:41.197Z,4.03
2023-06-03T13:39:14.813Z,4.13
2023-06-03T13:40:49.126Z,4.30
2023-06-03T13:42:22.015Z,4.17
2023-06-03T13:43:54.818Z,4.30
2023-06-03T13:45:27.585Z,3.70
2023-06-03T13:47:01.634Z,3.77
2023-06-03T13:48:34.541Z,4.27
2023-06-03T13:50:08.854Z,4.03
2023-06-03T13:51:40.780Z,3.97
2023-06-03T13:53:14.043Z,4.90
2023-06-03T13:54:46.842Z,4.17
2023-06-03T13:56:22.155Z,4.00
2023-06-03T13:57:54.904Z,4.07
2023-06-03T13:59:27.936Z,4.00
2023-06-03T14:01:00.717Z,4.20
2023-06-03T14:02:33.571Z,4.03
2023-06-03T14:04:06.486Z,3.97
2023-06-03T14:05:39.320Z,3.90
2023-06-03T14:07:12.152Z,3.90
2023-06-03T14:08:45.059Z,3.90
2023-06-03T14:10:18.050Z,3.57
2023-06-03T14:11:52.189Z,3.67
2023-06-03T14:13:24.910Z,4.00
2023-06-03T14:14:57.641Z,3.90
2023-06-03T14:16:30.909Z,3.50
2023-06-03T14:18:03.857Z,3.70
2023-06-03T14:19:36.675Z,3.83
2023-06-03T14:21:09.731Z,4.23
2023-06-03T14:22:42.507Z,4.20
2023-06-03T14:24:15.303Z,3.83
2023-06-03T14:25:48.093Z,3.70
2023-06-03T14:27:22.188Z,3.80
2023-06-03T14:28:54.937Z,3.83
2023-06-03T14:30:40.604Z,3.73
2023-06-03T14:32:20.880Z,3.90
2023-06-03T14:33:53.972Z,3.67
2023-06-03T14:35:26.727Z,3.87
2023-06-03T14:36:59.466Z,4.00
2023-06-03T14:38:35.426Z,3.83
2023-06-03T14:40:09.017Z,3.17
2023-06-03T14:41:43.662Z,3.60
2023-06-03T14:43:18.113Z,3.90
2023-06-03T14:45:00.709Z,3.87
2023-06-03T14:46:34.377Z,3.30
2023-06-03T14:48:07.167Z,3.90
2023-06-03T14:49:40.016Z,3.60
2023-06-03T14:51:12.863Z,3.60
2023-06-03T14:52:45.743Z,3.43
2023-06-03T14:54:18.600Z,3.70
2023-06-03T14:55:51.366Z,3.43
2023-06-03T14:57:24.276Z,3.17
2023-06-03T14:58:58.863Z,3.50
2023-06-03T15:00:31.654Z,3.97
2023-06-03T15:02:04.449Z,3.73
2023-06-03T15:03:37.240Z,3.60
2023-06-03T15:05:10.081Z,3.70
2023-06-03T15:06:43.055Z,3.53
2023-06-03T15:08:15.904Z,3.53
2023-06-03T15:09:48.653Z,3.10
2023-06-03T15:11:21.589Z,3.40
2023-06-03T15:12:54.503Z,3.33
2023-06-03T15:14:28.593Z,3.57
2023-06-03T15:16:01.377Z,3.30
2023-06-03T15:17:34.192Z,3.43
2023-06-03T15:19:07.279Z,3.17
2023-06-03T15:20:41.378Z,3.10
2023-06-03T15:22:14.233Z,3.27
2023-06-03T15:23:47.352Z,3.27
2023-06-03T15:25:20.406Z,3.10
2023-06-03T15:26:53.142Z,3.20
2023-06-03T15:28:25.922Z,3.50
2023-06-03T15:30:00.201Z,3.30
2023-06-03T15:31:33.217Z,3.20
2023-06-03T15:33:07.014Z,3.23
2023-06-03T15:34:39.797Z,3.70
2023-06-03T15:36:12.688Z,3.30
2023-06-03T15:37:45.955Z,3.43
2023-06-03T15:39:17.815Z,3.30
2023-06-03T15:40:50.608Z,3.17
2023-06-03T15:42:23.471Z,3.13
2023-06-03T15:43:56.376Z,3.00
2023-06-03T15:45:30.452Z,3.20
2023-06-03T15:47:04.871Z,3.17
2023-06-03T15:48:37.909Z,3.13
2023-06-03T15:50:10.933Z,3.10
2023-06-03T15:51:45.224Z,3.30
2023-06-03T15:53:19.217Z,3.77
2023-06-03T15:54:51.967Z,3.43
2023-06-03T15:56:24.736Z,10.77
2023-06-03T15:57:57.513Z,3.40
2023-06-03T15:59:30.456Z,3.40
2023-06-03T16:01:04.646Z,3.10
2023-06-03T16:02:37.471Z,16.67
2023-06-03T16:04:10.377Z,5.70
2023-06-03T16:05:43.180Z,3.77
2023-06-03T16:07:16.025Z,3.27
2023-06-03T16:08:48.817Z,3.13
2023-06-03T16:10:21.566Z,2.90
2023-06-03T16:11:54.382Z,3.10
2023-06-03T16:13:27.300Z,3.17
2023-06-03T16:15:00.109Z,3.20
2023-06-03T16:16:34.326Z,3.20
2023-06-03T16:18:07.332Z,3.03
2023-06-03T16:19:42.447Z,3.27
2023-06-03T16:21:15.548Z,3.00
2023-06-03T16:22:48.416Z,3.40
2023-06-03T16:24:21.603Z,2.80
2023-06-03T16:25:54.352Z,3.23
2023-06-03T16:27:27.243Z,2.90
2023-06-03T16:29:00.001Z,3.40
2023-06-03T16:30:33.028Z,3.20
2023-06-03T16:32:07.807Z,3.13
2023-06-03T16:33:40.647Z,3.20
2023-06-03T16:35:13.406Z,3.03
2023-06-03T16:36:46.141Z,2.90
2023-06-03T16:38:18.928Z,3.20
2023-06-03T16:39:54.569Z,3.20
2023-06-03T16:41:28.896Z,3.00
2023-06-03T16:43:01.700Z,3.00
2023-06-03T16:44:34.479Z,3.23
2023-06-03T16:46:07.351Z,3.23
2023-06-03T16:47:41.935Z,3.20
2023-06-03T16:49:15.984Z,2.77
2023-06-03T16:50:48.796Z,4.43
2023-06-03T16:52:23.656Z,3.33
2023-06-03T16:53:56.707Z,3.17
2023-06-03T16:55:29.477Z,3.00
2023-06-03T16:57:02.240Z,3.27
2023-06-03T16:58:35.315Z,2.77
2023-06-03T17:00:09.588Z,3.43
2023-06-03T17:01:42.445Z,3.00
2023-06-03T17:03:16.559Z,3.10
2023-06-03T17:04:49.595Z,2.63
2023-06-03T17:06:22.376Z,2.90
2023-06-03T17:07:55.198Z,3.10
2023-06-03T17:09:27.928Z,2.87
2023-06-03T17:11:00.731Z,3.00
2023-06-03T17:12:33.455Z,3.00
2023-06-03T17:14:06.764Z,3.10
2023-06-03T17:15:39.545Z,2.70
2023-06-03T17:17:12.369Z,3.00
2023-06-03T17:18:46.953Z,2.80
2023-06-03T17:20:19.819Z,2.63
2023-06-03T17:21:52.734Z,2.70
2023-06-03T17:23:25.536Z,2.80
2023-06-03T17:24:58.276Z,2.57
2023-06-03T17:26:31.075Z,2.90
2023-06-03T17:28:04.132Z,2.53
2023-06-03T17:29:36.889Z,2.70
2023-06-03T17:31:09.858Z,2.60
2023-06-03T17:32:45.579Z,2.90
2023-06-03T17:34:20.082Z,2.97
2023-06-03T17:35:52.911Z,2.63
2023-06-03T17:37:25.766Z,2.57
2023-06-03T17:38:58.536Z,2.63
2023-06-03T17:40:31.285Z,2.90
2023-06-03T17:42:04.214Z,2.63
2023-06-03T17:43:38.053Z,2.90
2023-06-03T17:45:11.536Z,2.60
2023-06-03T17:46:44.333Z,3.00
2023-06-03T17:48:17.072Z,2.63
2023-06-03T17:49:52.058Z,2.50
2023-06-03T17:51:24.862Z,2.47
2023-06-03T17:52:57.615Z,2.70
2023-06-03T17:54:30.438Z,2.50
2023-06-03T17:56:03.220Z,2.63
2023-06-03T17:57:45.361Z,2.10
2023-06-03T17:59:18.146Z,2.33
2023-06-03T18:00:51.523Z,2.60
2023-06-03T18:02:26.181Z,2.40
2023-06-03T18:03:59.018Z,2.60
2023-06-03T18:05:33.508Z,2.17
2023-06-03T18:07:06.804Z,2.20
2023-06-03T18:08:39.529Z,2.40
2023-06-03T18:10:14.153Z,2.60
2023-06-03T18:11:46.891Z,2.20
2023-06-03T18:13:19.620Z,2.60
2023-06-03T18:14:52.747Z,2.33
2023-06-03T18:16:25.596Z,2.40
2023-06-03T18:17:59.385Z,2.30
2023-06-03T18:19:33.139Z,2.43
2023-06-03T18:21:07.409Z,2.20
2023-06-03T18:22:40.179Z,2.20
2023-06-03T18:24:12.957Z,2.60
2023-06-03T18:25:46.585Z,2.27
2023-06-03T18:27:19.645Z,2.10
2023-06-03T18:28:52.376Z,2.20
2023-06-03T18:30:25.293Z,2.07
2023-06-03T18:31:58.090Z,2.23
2023-06-03T18:33:30.875Z,2.30
2023-06-03T18:35:03.617Z,1.90
2023-06-03T18:36:37.708Z,1.97
2023-06-03T18:38:10.442Z,2.13
2023-06-03T18:39:43.256Z,1.90
2023-06-03T18:41:16.219Z,1.93
2023-06-03T18:42:49.013Z,2.03
2023-06-03T18:44:21.772Z,1.90
2023-06-03T18:45:54.575Z,2.00
2023-06-03T18:47:26.474Z,1.97
2023-06-03T18:48:59.259Z,2.10
2023-06-03T18:50:32.025Z,1.97
2023-06-03T18:52:06.693Z,1.83
2023-06-03T18:53:39.464Z,2.07
2023-06-03T18:55:12.609Z,1.93
2023-06-03T18:56:45.530Z,1.60
2023-06-03T18:58:18.307Z,1.83
2023-06-03T18:59:51.951Z,1.97
2023-06-03T19:01:24.954Z,1.90
2023-06-03T19:02:57.890Z,1.80
2023-06-03T19:04:30.741Z,2.20
2023-06-03T19:06:04.431Z,1.93
2023-06-03T19:07:38.864Z,1.93
2023-06-03T19:09:12.829Z,2.10
2023-06-03T19:10:46.166Z,1.93
2023-06-03T19:12:18.956Z,1.73
2023-06-03T19:13:51.731Z,1.90
2023-06-03T19:15:24.499Z,1.73
2023-06-03T19:16:57.708Z,1.70
2023-06-03T19:18:30.433Z,2.00
2023-06-03T19:20:05.801Z,1.90
2023-06-03T19:21:39.786Z,2.00
2023-06-03T19:23:14.277Z,2.07
2023-06-03T19:24:47.132Z,1.60
2023-06-03T19:26:19.954Z,1.73
2023-06-03T19:27:52.717Z,1.80
2023-06-03T19:29:25.519Z,1.73
2023-06-03T19:30:58.682Z,1.90
2023-06-03T19:32:31.459Z,1.87
2023-06-03T19:34:05.252Z,2.00
2023-06-03T19:35:37.978Z,1.90
2023-06-03T19:37:11.035Z,2.33
2023-06-03T19:38:45.142Z,1.83
2023-06-03T19:40:18.091Z,1.80
2023-06-03T19:41:50.838Z,2.00
2023-06-03T19:43:23.625Z,1.70
2023-06-03T19:44:56.354Z,1.93
2023-06-03T19:46:32.718Z,1.83
2023-06-03T19:48:06.277Z,1.97
2023-06-03T19:49:39.112Z,1.80
2023-06-03T19:51:11.892Z,1.57
2023-06-03T19:52:55.164Z,1.73
2023-06-03T19:54:30.246Z,1.70
2023-06-03T19:56:03.100Z,2.03
2023-06-03T19:57:35.949Z,1.80
2023-06-03T19:59:08.701Z,1.70
2023-06-03T20:00:41.996Z,1.60
2023-06-03T20:02:15.091Z,1.63
2023-06-03T20:03:48.509Z,1.80
2023-06-03T20:05:21.516Z,1.83
2023-06-03T20:06:54.258Z,1.80
2023-06-03T20:08:27.010Z,1.67
2023-06-03T20:10:01.107Z,1.87
2023-06-03T20:11:34.760Z,1.60
2023-06-03T20:13:09.794Z,1.80
2023-06-03T20:14:50.696Z,1.80
2023-06-03T20:16:23.501Z,1.93
2023-06-03T20:17:56.536Z,1.67
2023-06-03T20:19:29.271Z,1.83
2023-06-03T20:21:02.121Z,1.60
2023-06-03T20:22:35.576Z,1.53
2023-06-03T20:24:08.860Z,1.63
2023-06-03T20:25:44.122Z,1.60
2023-06-03T20:27:18.000Z,1.90
2023-06-03T20:28:50.839Z,1.57
2023-06-03T20:30:22.730Z,1.60
2023-06-03T20:31:55.617Z,1.80
2023-06-03T20:33:28.412Z,1.57
2023-06-03T20:35:01.198Z,1.77
2023-06-03T20:36:34.038Z,1.80
2023-06-03T20:38:06.870Z,1.57
2023-06-03T20:39:39.929Z,1.73
2023-06-03T20:41:14.780Z,1.80
2023-06-03T20:42:48.782Z,1.60
2023-06-03T20:44:21.540Z,1.70
2023-06-03T20:45:56.095Z,1.50
2023-06-03T20:47:28.959Z,1.70
2023-06-03T20:49:01.815Z,1.70
2023-06-03T20:50:34.575Z,1.63
2023-06-03T20:52:07.756Z,1.70
2023-06-03T20:53:41.074Z,1.80
2023-06-03T20:55:13.807Z,1.97
2023-06-03T20:56:47.961Z,1.60